createdAt,value
2023-06-30T00:00:48.773Z,1006.57
2023-06-30T00:01:48.858Z,1006.63
2023-06-30T00:02:48.924Z,1006.55
2023-06-30T00:03:48.918Z,1006.60
2023-06-30T00:04:48.841Z,1006.65
2023-06-30T00:05:48.891Z,1006.64
2023-06-30T00:06:48.766Z,1006.61
2023-06-30T00:07:48.747Z,1006.68
2023-06-30T00:08:48.678Z,1006.66
2023-06-30T00:09:48.669Z,1006.63
2023-06-30T00:10:48.687Z,1006.65
2023-06-30T00:11:48.659Z,1006.65
2023-06-30T00:12:48.647Z,1006.63
2023-06-30T00:13:48.706Z,1006.65
2023-06-30T00:14:48.617Z,1006.61
2023-06-30T00:15:49.116Z,1006.59
2023-06-30T00:16:48.645Z,1006.67
2023-06-30T00:17:48.653Z,1006.62
2023-06-30T00:18:48.612Z,1006.64
2023-06-30T00:19:48.599Z,1006.61
2023-06-30T00:20:48.597Z,1006.64
2023-06-30T00:21:48.540Z,1006.59
2023-06-30T00:22:48.543Z,1006.64
2023-06-30T00:23:48.514Z,1006.63
2023-06-30T00:24:48.521Z,1006.62
2023-06-30T00:25:48.596Z,1006.70
2023-06-30T00:26:48.497Z,1006.64
2023-06-30T00:27:48.495Z,1006.64
2023-06-30T00:28:48.469Z,1006.68
2023-06-30T00:29:48.514Z,1006.68
2023-06-30T00:30:48.570Z,1006.67
2023-06-30T00:31:48.467Z,1006.66
2023-06-30T00:32:48.572Z,1006.64
2023-06-30T00:33:48.421Z,1006.68
2023-06-30T00:34:48.440Z,1006.63
2023-06-30T00:35:48.398Z,1006.59
2023-06-30T00:36:48.380Z,1006.57
2023-06-30T00:37:48.378Z,1006.54
2023-06-30T00:38:48.363Z,1006.49
2023-06-30T00:39:48.356Z,1006.51
2023-06-30T00:40:48.422Z,1006.52
2023-06-30T00:41:48.351Z,1006.51
2023-06-30T00:42:48.314Z,1006.46
2023-06-30T00:43:48.324Z,1006.52
2023-06-30T00:44:48.285Z,1006.52
2023-06-30T00:45:48.430Z,1006.53
2023-06-30T00:46:48.277Z,1006.57
2023-06-30T00:47:48.344Z,1006.52
2023-06-30T00:48:48.259Z,1006.51
2023-06-30T00:49:48.318Z,1006.51
2023-06-30T00:50:48.262Z,1006.53
2023-06-30T00:51:48.246Z,1006.50
2023-06-30T00:52:48.205Z,1006.52
2023-06-30T00:53:48.237Z,1006.49
2023-06-30T00:54:48.187Z,1006.51
2023-06-30T00:55:48.490Z,1006.53
2023-06-30T00:56:48.157Z,1006.49
2023-06-30T00:57:48.195Z,1006.50
2023-06-30T00:58:55.483Z,1006.46
2023-06-30T00:59:48.136Z,1006.45
2023-06-30T01:00:48.136Z,1006.51
2023-06-30T01:01:48.317Z,1006.53
2023-06-30T01:02:49.900Z,1006.51
2023-06-30T01:03:48.259Z,1006.53
2023-06-30T01:04:48.150Z,1006.48
2023-06-30T01:05:48.196Z,1006.47
2023-06-30T01:06:48.086Z,1006.41
2023-06-30T01:07:48.049Z,1006.45
2023-06-30T01:08:48.055Z,1006.46
2023-06-30T01:09:48.088Z,1006.47
2023-06-30T01:10:48.019Z,1006.53
2023-06-30T01:11:48.014Z,1006.54
2023-06-30T01:12:48.073Z,1006.54
2023-06-30T01:13:47.981Z,1006.53
2023-06-30T01:14:47.978Z,1006.55
2023-06-30T01:15:48.118Z,1006.54
2023-06-30T01:16:48.081Z,1006.53
2023-06-30T01:17:47.957Z,1006.58
2023-06-30T01:18:47.937Z,1006.55
2023-06-30T01:19:47.918Z,1006.54
2023-06-30T01:20:47.955Z,1006.53
2023-06-30T01:21:47.921Z,1006.47
2023-06-30T01:22:47.931Z,1006.55
2023-06-30T01:23:47.874Z,1006.47
2023-06-30T01:24:47.872Z,1006.42
2023-06-30T01:25:48.033Z,1006.45
2023-06-30T01:26:47.857Z,1006.45
2023-06-30T01:27:47.840Z,1006.46
2023-06-30T01:28:47.882Z,1006.47
2023-06-30T01:29:47.812Z,1006.47
2023-06-30T01:30:47.911Z,1006.43
2023-06-30T01:31:47.800Z,1006.51
2023-06-30T01:32:47.834Z,1006.54
2023-06-30T01:33:47.781Z,1006.53
2023-06-30T01:34:47.774Z,1006.54
2023-06-30T01:35:47.854Z,1006.47
2023-06-30T01:36:47.738Z,1006.42
2023-06-30T01:37:47.732Z,1006.47
2023-06-30T01:38:47.800Z,1006.52
2023-06-30T01:39:47.722Z,1006.49
2023-06-30T01:40:47.744Z,1006.54
2023-06-30T01:41:47.690Z,1006.54
2023-06-30T01:42:47.687Z,1006.59
2023-06-30T01:43:47.666Z,1006.58
2023-06-30T01:44:47.686Z,1006.61
2023-06-30T01:45:48.030Z,1006.64
2023-06-30T01:46:47.736Z,1006.63
2023-06-30T01:47:47.658Z,1006.63
2023-06-30T01:48:47.630Z,1006.60
2023-06-30T01:49:47.655Z,1006.60
2023-06-30T01:50:47.594Z,1006.62
2023-06-30T01:51:47.580Z,1006.61
2023-06-30T01:52:47.589Z,1006.58
2023-06-30T01:53:47.637Z,1006.63
2023-06-30T01:54:47.552Z,1006.63
2023-06-30T01:55:47.679Z,1006.64
2023-06-30T01:56:47.537Z,1006.65
2023-06-30T01:57:47.624Z,1006.66
2023-06-30T01:58:47.546Z,1006.67
2023-06-30T01:59:47.494Z,1006.66
2023-06-30T02:00:47.497Z,1006.65
2023-06-30T02:01:47.548Z,1006.63
2023-06-30T02:02:47.625Z,1006.62
2023-06-30T02:03:47.511Z,1006.62
2023-06-30T02:04:47.449Z,1006.62
2023-06-30T02:05:47.650Z,1006.66
2023-06-30T02:06:47.433Z,1006.64
2023-06-30T02:07:47.453Z,1006.58
2023-06-30T02:08:47.514Z,1006.60
2023-06-30T02:09:49.048Z,1006.62
2023-06-30T02:10:47.389Z,1006.59
2023-06-30T02:11:47.376Z,1006.63
2023-06-30T02:12:47.384Z,1006.63
2023-06-30T02:13:47.344Z,1006.57
2023-06-30T02:14:47.343Z,1006.57
2023-06-30T02:15:47.564Z,1006.50
2023-06-30T02:16:47.394Z,1006.48
2023-06-30T02:17:47.333Z,1006.47
2023-06-30T02:18:47.340Z,1006.46
2023-06-30T02:19:47.310Z,1006.46
2023-06-30T02:20:47.282Z,1006.50
2023-06-30T02:21:47.262Z,1006.47
2023-06-30T02:22:47.343Z,1006.45
2023-06-30T02:23:47.305Z,1006.47
2023-06-30T02:24:47.238Z,1006.45
2023-06-30T02:25:47.534Z,1006.47
2023-06-30T02:26:47.238Z,1006.48
2023-06-30T02:27:47.235Z,1006.44
2023-06-30T02:28:47.343Z,1006.44
2023-06-30T02:29:47.182Z,1006.47
2023-06-30T02:30:47.169Z,1006.51
2023-06-30T02:31:47.163Z,1006.53
2023-06-30T02:32:47.193Z,1006.54
2023-06-30T02:33:47.224Z,1006.53
2023-06-30T02:34:47.124Z,1006.56
2023-06-30T02:35:47.417Z,1006.60
2023-06-30T02:36:47.157Z,1006.52
2023-06-30T02:37:47.082Z,1006.56
2023-06-30T02:38:47.087Z,1006.54
2023-06-30T02:39:47.108Z,1006.52
2023-06-30T02:40:47.096Z,1006.58
2023-06-30T02:41:47.058Z,1006.59
2023-06-30T02:42:47.034Z,1006.59
2023-06-30T02:43:47.030Z,1006.63
2023-06-30T02:44:47.014Z,1006.62
2023-06-30T02:45:47.411Z,1006.64
2023-06-30T02:46:47.006Z,1006.67
2023-06-30T02:47:47.060Z,1006.66
2023-06-30T02:48:46.985Z,1006.67
2023-06-30T02:49:46.980Z,1006.64
2023-06-30T02:50:46.976Z,1006.70
2023-06-30T02:51:46.948Z,1006.70
2023-06-30T02:52:46.942Z,1006.64
2023-06-30T02:53:46.921Z,1006.70
2023-06-30T02:54:46.909Z,1006.73
2023-06-30T02:55:47.256Z,1006.74
2023-06-30T02:56:46.890Z,1006.84
2023-06-30T02:57:46.870Z,1006.80
2023-06-30T02:58:46.859Z,1006.85
2023-06-30T02:59:46.888Z,1006.83
2023-06-30T03:00:46.968Z,1006.88
2023-06-30T03:01:46.905Z,1006.86
2023-06-30T03:02:46.995Z,1006.86
2023-06-30T03:03:46.836Z,1006.85
2023-06-30T03:04:46.792Z,1006.80
2023-06-30T03:05:47.109Z,1006.85
2023-06-30T03:06:46.805Z,1006.79
2023-06-30T03:07:46.768Z,1006.82
2023-06-30T03:08:46.765Z,1006.82
2023-06-30T03:09:46.767Z,1006.84
2023-06-30T03:10:46.763Z,1006.85
2023-06-30T03:11:46.739Z,1006.84
2023-06-30T03:12:46.755Z,1006.86
2023-06-30T03:13:46.698Z,1006.86
2023-06-30T03:14:46.695Z,1006.84
2023-06-30T03:15:47.022Z,1006.86
2023-06-30T03:16:46.786Z,1006.92
2023-06-30T03:17:46.673Z,1006.91
2023-06-30T03:18:46.681Z,1006.94
2023-06-30T03:19:46.639Z,1006.95
2023-06-30T03:20:46.626Z,1006.97
2023-06-30T03:21:46.618Z,1006.96
2023-06-30T03:22:46.641Z,1007.00
2023-06-30T03:23:46.595Z,1006.97
2023-06-30T03:24:46.582Z,1006.97
2023-06-30T03:25:46.992Z,1006.93
2023-06-30T03:26:46.602Z,1006.92
2023-06-30T03:27:46.563Z,1006.87
2023-06-30T03:28:46.540Z,1006.87
2023-06-30T03:29:46.530Z,1006.87
2023-06-30T03:30:46.631Z,1006.83
2023-06-30T03:31:46.518Z,1006.84
2023-06-30T03:32:46.549Z,1006.80
2023-06-30T03:33:46.509Z,1006.84
2023-06-30T03:34:46.491Z,1006.86
2023-06-30T03:35:46.724Z,1006.84
2023-06-30T03:36:46.461Z,1006.79
2023-06-30T03:37:46.447Z,1006.82
2023-06-30T03:38:46.437Z,1006.77
2023-06-30T03:39:46.431Z,1006.81
2023-06-30T03:40:46.501Z,1006.77
2023-06-30T03:41:46.413Z,1006.74
2023-06-30T03:42:46.435Z,1006.75
2023-06-30T03:43:46.384Z,1006.76
2023-06-30T03:44:46.394Z,1006.69
2023-06-30T03:45:46.550Z,1006.66
2023-06-30T03:46:46.405Z,1006.67
2023-06-30T03:47:49.563Z,1006.65
2023-06-30T03:48:46.328Z,1006.68
2023-06-30T03:49:46.321Z,1006.70
2023-06-30T03:50:46.332Z,1006.70
2023-06-30T03:51:46.296Z,1006.72
2023-06-30T03:52:46.342Z,1006.75
2023-06-30T03:53:46.317Z,1006.71
2023-06-30T03:54:46.258Z,1006.72
2023-06-30T03:55:46.510Z,1006.70
2023-06-30T03:56:46.240Z,1006.68
2023-06-30T03:57:46.234Z,1006.66
2023-06-30T03:58:46.238Z,1006.70
2023-06-30T03:59:46.292Z,1006.63
2023-06-30T04:00:46.202Z,1006.67
2023-06-30T04:01:46.191Z,1006.71
2023-06-30T04:02:46.295Z,1006.68
2023-06-30T04:03:47.824Z,1006.77
2023-06-30T04:04:46.301Z,1006.72
2023-06-30T04:05:46.445Z,1006.71
2023-06-30T04:06:46.132Z,1006.72
2023-06-30T04:07:46.284Z,1006.71
2023-06-30T04:08:46.111Z,1006.75
2023-06-30T04:09:46.114Z,1006.68
2023-06-30T04:10:46.131Z,1006.71
2023-06-30T04:11:46.090Z,1006.75
2023-06-30T04:12:46.072Z,1006.71
2023-06-30T04:13:46.052Z,1006.73
2023-06-30T04:14:46.061Z,1006.62
2023-06-30T04:15:46.435Z,1006.72
2023-06-30T04:16:46.360Z,1006.65
2023-06-30T04:17:46.038Z,1006.61
2023-06-30T04:18:47.836Z,1006.68
2023-06-30T04:19:46.076Z,1006.61
2023-06-30T04:20:45.990Z,1006.54
2023-06-30T04:21:45.981Z,1006.55
2023-06-30T04:22:45.965Z,1006.52
2023-06-30T04:23:45.962Z,1006.52
2023-06-30T04:24:45.971Z,1006.55
2023-06-30T04:25:46.156Z,1006.54
2023-06-30T04:26:45.978Z,1006.59
2023-06-30T04:27:45.916Z,1006.58
2023-06-30T04:28:45.930Z,1006.61
2023-06-30T04:29:45.889Z,1006.59
2023-06-30T04:30:45.917Z,1006.53
2023-06-30T04:31:45.903Z,1006.50
2023-06-30T04:32:45.902Z,1006.53
2023-06-30T04:33:45.891Z,1006.50
2023-06-30T04:34:45.845Z,1006.53
2023-06-30T04:35:46.075Z,1006.52
2023-06-30T04:36:45.809Z,1006.55
2023-06-30T04:37:45.894Z,1006.52
2023-06-30T04:38:45.877Z,1006.53
2023-06-30T04:39:45.824Z,1006.54
2023-06-30T04:40:45.788Z,1006.54
2023-06-30T04:41:45.798Z,1006.57
2023-06-30T04:42:45.764Z,1006.60
2023-06-30T04:43:45.773Z,1006.62
2023-06-30T04:44:45.747Z,1006.62
2023-06-30T04:45:46.090Z,1006.65
2023-06-30T04:46:45.761Z,1006.64
2023-06-30T04:47:45.825Z,1006.64
2023-06-30T04:48:47.189Z,1006.68
2023-06-30T04:49:45.688Z,1006.74
2023-06-30T04:50:45.670Z,1006.75
2023-06-30T04:51:45.663Z,1006.76
2023-06-30T04:52:45.687Z,1006.79
2023-06-30T04:53:45.642Z,1006.84
2023-06-30T04:54:45.625Z,1006.87
2023-06-30T04:55:46.009Z,1006.85
2023-06-30T04:56:45.617Z,1006.79
2023-06-30T04:57:45.623Z,1006.81
2023-06-30T04:58:45.620Z,1006.78
2023-06-30T04:59:45.585Z,1006.83
2023-06-30T05:00:45.562Z,1006.85
2023-06-30T05:01:45.618Z,1006.88
2023-06-30T05:02:45.546Z,1006.90
2023-06-30T05:03:45.571Z,1006.92
2023-06-30T05:04:45.580Z,1006.90
2023-06-30T05:05:45.813Z,1006.88
2023-06-30T05:06:45.498Z,1006.90
2023-06-30T05:07:45.484Z,1006.93
2023-06-30T05:08:45.542Z,1006.90
2023-06-30T05:09:45.550Z,1006.91
2023-06-30T05:10:45.451Z,1006.87
2023-06-30T05:11:45.442Z,1006.90
2023-06-30T05:12:45.438Z,1006.88
2023-06-30T05:13:45.423Z,1006.92
2023-06-30T05:14:45.542Z,1006.91
2023-06-30T05:15:45.833Z,1006.95
2023-06-30T05:16:45.463Z,1006.92
2023-06-30T05:17:45.421Z,1006.90
2023-06-30T05:18:45.378Z,1006.95
2023-06-30T05:19:45.366Z,1006.92
2023-06-30T05:20:45.378Z,1006.94
2023-06-30T05:21:45.356Z,1007.00
2023-06-30T05:22:45.333Z,1007.02
2023-06-30T05:23:45.345Z,1007.02
2023-06-30T05:24:45.300Z,1007.00
2023-06-30T05:25:45.448Z,1007.01
2023-06-30T05:26:45.347Z,1007.02
2023-06-30T05:27:45.265Z,1006.99
2023-06-30T05:28:56.022Z,1007.04
2023-06-30T05:29:46.254Z,1007.05
2023-06-30T05:30:45.252Z,1007.09
2023-06-30T05:31:47.290Z,1007.14
2023-06-30T05:32:45.270Z,1007.14
2023-06-30T05:33:45.215Z,1007.16
2023-06-30T05:34:45.193Z,1007.11
2023-06-30T05:35:45.335Z,1007.13
2023-06-30T05:36:45.226Z,1007.14
2023-06-30T05:37:45.226Z,1007.17
2023-06-30T05:38:45.144Z,1007.15
2023-06-30T05:39:45.146Z,1007.09
2023-06-30T05:40:45.119Z,1007.05
2023-06-30T05:41:45.126Z,1006.99
2023-06-30T05:42:45.100Z,1007.02
2023-06-30T05:43:45.144Z,1006.97
2023-06-30T05:44:45.135Z,1007.01
2023-06-30T05:45:45.256Z,1006.99
2023-06-30T05:46:45.089Z,1007.01
2023-06-30T05:47:45.113Z,1006.99
2023-06-30T05:48:45.092Z,1006.98
2023-06-30T05:49:45.043Z,1007.02
2023-06-30T05:50:45.018Z,1006.94
2023-06-30T05:51:45.012Z,1006.97
2023-06-30T05:52:44.992Z,1006.96
2023-06-30T05:53:44.993Z,1007.00
2023-06-30T05:54:47.242Z,1007.00
2023-06-30T05:55:45.358Z,1006.99
2023-06-30T05:56:44.969Z,1007.06
2023-06-30T05:57:44.946Z,1007.08
2023-06-30T05:58:44.935Z,1007.08
2023-06-30T05:59:45.005Z,1007.08
2023-06-30T06:00:46.792Z,1007.06
2023-06-30T06:01:44.918Z,1007.07
2023-06-30T06:02:45.026Z,1007.04
2023-06-30T06:03:45.075Z,1007.02
2023-06-30T06:04:45.039Z,1007.06
2023-06-30T06:05:45.266Z,1007.12
2023-06-30T06:06:44.850Z,1007.08
2023-06-30T06:07:45.015Z,1007.11
2023-06-30T06:08:46.607Z,1007.13
2023-06-30T06:09:44.817Z,1007.09
2023-06-30T06:10:44.805Z,1007.16
2023-06-30T06:11:44.787Z,1007.10
2023-06-30T06:12:44.826Z,1007.16
2023-06-30T06:13:44.791Z,1007.13
2023-06-30T06:14:44.807Z,1007.17
2023-06-30T06:15:44.947Z,1007.16
2023-06-30T06:16:46.576Z,1007.17
2023-06-30T06:17:44.757Z,1007.19
2023-06-30T06:18:46.510Z,1007.16
2023-06-30T06:19:44.716Z,1007.15
2023-06-30T06:20:44.703Z,1007.19
2023-06-30T06:21:44.730Z,1007.18
2023-06-30T06:22:44.687Z,1007.17
2023-06-30T06:23:44.721Z,1007.14
2023-06-30T06:24:44.664Z,1007.12
2023-06-30T06:25:45.519Z,1007.13
2023-06-30T06:26:46.356Z,1007.12
2023-06-30T06:27:48.746Z,1007.17
2023-06-30T06:28:44.620Z,1007.12
2023-06-30T06:29:44.663Z,1007.18
2023-06-30T06:30:44.613Z,1007.17
2023-06-30T06:31:44.600Z,1007.18
2023-06-30T06:32:44.636Z,1007.20
2023-06-30T06:33:44.585Z,1007.25
2023-06-30T06:34:46.136Z,1007.23
2023-06-30T06:35:44.807Z,1007.24
2023-06-30T06:36:44.551Z,1007.25
2023-06-30T06:37:44.540Z,1007.30
2023-06-30T06:38:44.514Z,1007.31
2023-06-30T06:39:44.525Z,1007.30
2023-06-30T06:40:44.529Z,1007.31
2023-06-30T06:41:44.479Z,1007.32
2023-06-30T06:42:44.490Z,1007.29
2023-06-30T06:43:44.505Z,1007.32
2023-06-30T06:44:44.441Z,1007.28
2023-06-30T06:45:44.926Z,1007.31
2023-06-30T06:46:44.642Z,1007.30
2023-06-30T06:47:44.470Z,1007.29
2023-06-30T06:48:44.421Z,1007.35
2023-06-30T06:49:46.785Z,1007.32
2023-06-30T06:50:44.375Z,1007.29
2023-06-30T06:51:44.380Z,1007.32
2023-06-30T06:52:44.415Z,1007.26
2023-06-30T06:53:44.429Z,1007.23
2023-06-30T06:54:44.341Z,1007.26
2023-06-30T06:55:44.672Z,1007.25
2023-06-30T06:56:44.386Z,1007.23
2023-06-30T06:57:44.322Z,1007.27
2023-06-30T06:58:44.361Z,1007.30
2023-06-30T06:59:44.286Z,1007.27
2023-06-30T07:00:44.278Z,1007.30
2023-06-30T07:01:44.399Z,1007.26
2023-06-30T07:02:44.298Z,1007.25
2023-06-30T07:03:44.354Z,1007.28
2023-06-30T07:04:44.286Z,1007.24
2023-06-30T07:05:44.649Z,1007.31
2023-06-30T07:06:44.252Z,1007.23
2023-06-30T07:07:44.325Z,1007.17
2023-06-30T07:08:44.732Z,1007.23
2023-06-30T07:09:44.178Z,1007.21
2023-06-30T07:10:44.160Z,1007.20
2023-06-30T07:11:44.160Z,1007.19
2023-06-30T07:12:44.138Z,1007.17
2023-06-30T07:13:44.129Z,1007.16
2023-06-30T07:14:46.272Z,1007.17
2023-06-30T07:15:44.553Z,1007.15
2023-06-30T07:16:44.162Z,1007.17
2023-06-30T07:17:44.144Z,1007.14
2023-06-30T07:18:46.121Z,1007.16
2023-06-30T07:19:44.079Z,1007.17
2023-06-30T07:20:44.056Z,1007.19
2023-06-30T07:21:44.043Z,1007.14
2023-06-30T07:22:44.025Z,1007.19
2023-06-30T07:23:44.095Z,1007.18
2023-06-30T07:24:44.352Z,1007.17
2023-06-30T07:25:44.480Z,1007.19
2023-06-30T07:26:43.991Z,1007.24
2023-06-30T07:27:44.013Z,1007.21
2023-06-30T07:28:43.972Z,1007.22
2023-06-30T07:29:44.040Z,1007.22
2023-06-30T07:30:44.044Z,1007.29
2023-06-30T07:31:44.027Z,1007.30
2023-06-30T07:32:43.985Z,1007.30
2023-06-30T07:33:43.987Z,1007.27
2023-06-30T07:34:43.995Z,1007.25
2023-06-30T07:35:44.383Z,1007.26
2023-06-30T07:36:43.884Z,1007.28
2023-06-30T07:37:46.725Z,1007.26
2023-06-30T07:38:43.865Z,1007.25
2023-06-30T07:39:43.864Z,1007.24
2023-06-30T07:40:54.780Z,1007.30
2023-06-30T07:41:44.933Z,1007.24
2023-06-30T07:42:43.818Z,1007.25
2023-06-30T07:43:46.129Z,1007.26
2023-06-30T07:44:43.806Z,1007.25
2023-06-30T07:45:44.247Z,1007.22
2023-06-30T07:46:43.780Z,1007.30
2023-06-30T07:47:43.909Z,1007.26
2023-06-30T07:48:43.865Z,1007.27
2023-06-30T07:49:45.496Z,1007.29
2023-06-30T07:50:54.613Z,1007.25
2023-06-30T07:51:45.784Z,1007.26
2023-06-30T07:52:44.109Z,1007.24
2023-06-30T07:53:43.818Z,1007.23
2023-06-30T07:54:43.694Z,1007.23
2023-06-30T07:55:44.005Z,1007.25
2023-06-30T07:56:43.688Z,1007.29
2023-06-30T07:57:45.652Z,1007.27
2023-06-30T07:58:43.643Z,1007.31
2023-06-30T07:59:43.635Z,1007.30
2023-06-30T08:00:43.623Z,1007.33
2023-06-30T08:01:56.148Z,1007.31
2023-06-30T08:02:43.754Z,1007.36
2023-06-30T08:03:43.930Z,1007.33
2023-06-30T08:04:43.722Z,1007.35
2023-06-30T08:05:43.723Z,1007.39
2023-06-30T08:06:43.567Z,1007.44
2023-06-30T08:07:47.989Z,1007.39
2023-06-30T08:08:44.540Z,1007.44
2023-06-30T08:09:43.524Z,1007.41
2023-06-30T08:10:44.957Z,1007.43
2023-06-30T08:11:43.505Z,1007.43
2023-06-30T08:12:43.509Z,1007.46
2023-06-30T08:13:43.486Z,1007.50
2023-06-30T08:14:43.475Z,1007.46
2023-06-30T08:15:45.832Z,1007.47
2023-06-30T08:16:45.460Z,1007.44
2023-06-30T08:17:52.811Z,1007.45
2023-06-30T08:18:51.208Z,1007.42
2023-06-30T08:19:47.489Z,1007.46
2023-06-30T08:20:43.406Z,1007.43
2023-06-30T08:21:43.445Z,1007.44
2023-06-30T08:22:45.029Z,1007.40
2023-06-30T08:23:43.376Z,1007.39
2023-06-30T08:24:43.397Z,1007.43
2023-06-30T08:25:43.996Z,1007.38
2023-06-30T08:26:43.357Z,1007.40
2023-06-30T08:27:43.430Z,1007.43
2023-06-30T08:28:45.286Z,1007.44
2023-06-30T08:29:43.318Z,1007.44
2023-06-30T08:30:43.330Z,1007.43
2023-06-30T08:31:43.298Z,1007.54
2023-06-30T08:32:43.334Z,1007.44
2023-06-30T08:33:43.329Z,1007.50
2023-06-30T08:34:43.257Z,1007.50
2023-06-30T08:35:43.604Z,1007.52
2023-06-30T08:36:43.236Z,1007.47
2023-06-30T08:37:43.897Z,1007.49
2023-06-30T08:38:45.328Z,1007.47
2023-06-30T08:39:43.205Z,1007.43
2023-06-30T08:40:43.204Z,1007.42
2023-06-30T08:41:43.256Z,1007.40
2023-06-30T08:42:43.186Z,1007.39
2023-06-30T08:43:43.222Z,1007.40
2023-06-30T08:44:43.159Z,1007.41
2023-06-30T08:45:43.510Z,1007.38
2023-06-30T08:46:43.179Z,1007.35
2023-06-30T08:47:43.290Z,1007.38
2023-06-30T08:48:43.151Z,1007.41
2023-06-30T08:49:43.112Z,1007.39
2023-06-30T08:50:43.187Z,1007.38
2023-06-30T08:51:43.095Z,1007.35
2023-06-30T08:52:43.070Z,1007.36
2023-06-30T08:53:43.069Z,1007.36
2023-06-30T08:54:43.075Z,1007.33
2023-06-30T08:55:43.372Z,1007.32
2023-06-30T08:56:44.795Z,1007.34
2023-06-30T08:57:43.014Z,1007.30
2023-06-30T08:58:43.071Z,1007.29
2023-06-30T08:59:42.991Z,1007.30
2023-06-30T09:01:53.361Z,1007.24
2023-06-30T09:02:53.398Z,1007.23
2023-06-30T09:03:54.570Z,1007.28
2023-06-30T09:04:53.342Z,1007.28
2023-06-30T09:05:53.300Z,1007.25
2023-06-30T09:06:53.325Z,1007.25
2023-06-30T09:07:53.287Z,1007.23
2023-06-30T09:09:01.687Z,1007.25
2023-06-30T09:09:53.260Z,1007.22
2023-06-30T09:10:53.258Z,1007.21
2023-06-30T09:11:59.081Z,1007.16
2023-06-30T09:12:53.228Z,1007.15
2023-06-30T09:13:53.212Z,1007.19
2023-06-30T09:14:53.207Z,1007.18
2023-06-30T09:15:53.194Z,1007.17
2023-06-30T09:16:53.202Z,1007.16
2023-06-30T09:17:53.790Z,1007.17
2023-06-30T09:18:56.972Z,1007.10
2023-06-30T09:19:53.193Z,1007.10
2023-06-30T09:20:53.166Z,1007.09
2023-06-30T09:21:53.141Z,1007.04
2023-06-30T09:22:57.046Z,1007.08
2023-06-30T09:23:53.114Z,1007.06
2023-06-30T09:24:53.166Z,1007.02
2023-06-30T09:25:53.137Z,1007.00
2023-06-30T09:26:53.099Z,1007.02
2023-06-30T09:27:53.070Z,1007.01
2023-06-30T09:28:53.099Z,1006.99
2023-06-30T09:29:57.082Z,1006.99
2023-06-30T09:30:53.028Z,1007.01
2023-06-30T09:31:53.044Z,1006.99
2023-06-30T09:32:54.803Z,1007.01
2023-06-30T09:33:52.998Z,1007.03
2023-06-30T09:34:53.001Z,1007.02
2023-06-30T09:35:52.976Z,1007.05
2023-06-30T09:36:53.039Z,1007.04
2023-06-30T09:37:53.079Z,1007.11
2023-06-30T09:38:52.948Z,1007.12
2023-06-30T09:39:52.947Z,1007.18
2023-06-30T09:40:54.527Z,1007.16
2023-06-30T09:41:52.912Z,1007.13
2023-06-30T09:42:52.912Z,1007.15
2023-06-30T09:43:54.846Z,1007.09
2023-06-30T09:44:52.881Z,1007.10
2023-06-30T09:45:52.887Z,1007.05
2023-06-30T09:46:52.859Z,1007.04
2023-06-30T09:47:52.897Z,1007.06
2023-06-30T09:48:52.880Z,1007.09
2023-06-30T09:49:52.872Z,1007.04
2023-06-30T09:50:52.808Z,1007.07
2023-06-30T09:51:52.838Z,1007.05
2023-06-30T09:52:52.799Z,1007.08
2023-06-30T09:53:52.789Z,1007.03
2023-06-30T09:54:52.767Z,1007.06
2023-06-30T09:55:54.389Z,1007.04
2023-06-30T09:56:54.840Z,1006.98
2023-06-30T09:57:52.737Z,1007.02
2023-06-30T09:58:52.726Z,1006.98
2023-06-30T09:59:52.729Z,1006.99
2023-06-30T10:00:52.833Z,1006.93
2023-06-30T10:01:52.808Z,1006.90
2023-06-30T10:02:52.755Z,1006.86
2023-06-30T10:03:52.698Z,1006.87
2023-06-30T10:04:52.656Z,1006.86
2023-06-30T10:05:52.648Z,1006.89
2023-06-30T10:06:56.190Z,1006.91
2023-06-30T10:07:52.625Z,1006.87
2023-06-30T10:08:52.647Z,1006.89
2023-06-30T10:09:52.595Z,1006.91
2023-06-30T10:10:52.608Z,1006.91
2023-06-30T10:11:54.706Z,1006.82
2023-06-30T10:12:52.568Z,1006.90
2023-06-30T10:13:52.563Z,1006.89
2023-06-30T10:14:52.640Z,1006.93
2023-06-30T10:15:52.550Z,1006.87
2023-06-30T10:16:52.568Z,1006.92
2023-06-30T10:17:52.633Z,1006.84
2023-06-30T10:18:52.520Z,1006.88
2023-06-30T10:19:52.499Z,1006.80
2023-06-30T10:20:56.906Z,1006.79
2023-06-30T10:21:52.480Z,1006.82
2023-06-30T10:22:52.467Z,1006.84
2023-06-30T10:23:54.466Z,1006.80
2023-06-30T10:24:52.475Z,1006.85
2023-06-30T10:25:52.469Z,1006.82
2023-06-30T10:26:52.431Z,1006.75
2023-06-30T10:27:52.452Z,1006.84
2023-06-30T10:28:52.401Z,1006.73
2023-06-30T10:29:52.391Z,1006.77
2023-06-30T10:30:52.429Z,1006.81
2023-06-30T10:31:52.472Z,1006.78
2023-06-30T10:32:52.465Z,1006.79
2023-06-30T10:33:55.432Z,1006.78
2023-06-30T10:34:52.388Z,1006.82
2023-06-30T10:35:52.976Z,1006.77
2023-06-30T10:36:52.321Z,1006.77
2023-06-30T10:37:53.849Z,1006.85
2023-06-30T10:38:52.432Z,1006.82
2023-06-30T10:39:52.281Z,1006.80
2023-06-30T10:40:52.272Z,1006.81
2023-06-30T10:41:52.278Z,1006.79
2023-06-30T10:42:52.255Z,1006.78
2023-06-30T10:43:52.236Z,1006.76
2023-06-30T10:44:52.293Z,1006.78
2023-06-30T10:45:53.201Z,1006.78
2023-06-30T10:46:52.300Z,1006.75
2023-06-30T10:47:52.228Z,1006.73
2023-06-30T10:48:52.192Z,1006.73
2023-06-30T10:49:52.194Z,1006.74
2023-06-30T10:50:52.172Z,1006.70
2023-06-30T10:51:53.917Z,1006.70
2023-06-30T10:52:52.168Z,1006.72
2023-06-30T10:53:52.151Z,1006.69
2023-06-30T10:54:52.204Z,1006.69
2023-06-30T10:55:53.958Z,1006.72
2023-06-30T10:56:52.152Z,1006.67
2023-06-30T10:57:52.114Z,1006.67
2023-06-30T10:58:52.084Z,1006.60
2023-06-30T10:59:52.068Z,1006.63
2023-06-30T11:00:52.221Z,1006.63
2023-06-30T11:01:52.044Z,1006.61
2023-06-30T11:02:52.161Z,1006.57
2023-06-30T11:03:52.212Z,1006.55
2023-06-30T11:04:52.127Z,1006.55
2023-06-30T11:05:52.008Z,1006.51
2023-06-30T11:06:52.017Z,1006.55
2023-06-30T11:07:51.997Z,1006.53
2023-06-30T11:08:51.995Z,1006.53
2023-06-30T11:09:52.013Z,1006.55
2023-06-30T11:10:51.950Z,1006.49
2023-06-30T11:11:51.945Z,1006.54
2023-06-30T11:12:51.931Z,1006.55
2023-06-30T11:13:51.930Z,1006.47
2023-06-30T11:14:51.905Z,1006.48
2023-06-30T11:15:54.850Z,1006.47
2023-06-30T11:16:51.885Z,1006.53
2023-06-30T11:17:51.973Z,1006.49
2023-06-30T11:18:53.825Z,1006.49
2023-06-30T11:19:51.863Z,1006.54
2023-06-30T11:20:51.833Z,1006.53
2023-06-30T11:21:51.832Z,1006.49
2023-06-30T11:22:51.821Z,1006.52
2023-06-30T11:23:51.827Z,1006.55
2023-06-30T11:24:53.528Z,1006.45
2023-06-30T11:25:51.794Z,1006.51
2023-06-30T11:26:51.839Z,1006.47
2023-06-30T11:27:51.785Z,1006.52
2023-06-30T11:28:51.766Z,1006.46
2023-06-30T11:29:51.886Z,1006.48
2023-06-30T11:30:53.613Z,1006.45
2023-06-30T11:31:52.487Z,1006.45
2023-06-30T11:32:51.759Z,1006.45
2023-06-30T11:33:51.699Z,1006.45
2023-06-30T11:34:51.739Z,1006.46
2023-06-30T11:35:51.692Z,1006.41
2023-06-30T11:36:51.673Z,1006.43
2023-06-30T11:37:53.395Z,1006.41
2023-06-30T11:38:51.657Z,1006.41
2023-06-30T11:39:51.634Z,1006.46
2023-06-30T11:40:51.632Z,1006.44
2023-06-30T11:41:51.623Z,1006.37
2023-06-30T11:42:51.593Z,1006.39
2023-06-30T11:43:51.656Z,1006.36
2023-06-30T11:44:55.066Z,1006.42
2023-06-30T11:45:53.714Z,1006.39
2023-06-30T11:46:55.075Z,1006.40
2023-06-30T11:47:51.647Z,1006.43
2023-06-30T11:48:51.594Z,1006.41
2023-06-30T11:49:51.621Z,1006.44
2023-06-30T11:50:51.532Z,1006.39
2023-06-30T11:51:51.543Z,1006.47
2023-06-30T11:52:51.526Z,1006.44
2023-06-30T11:53:51.530Z,1006.46
2023-06-30T11:54:51.488Z,1006.45
2023-06-30T11:55:51.470Z,1006.46
2023-06-30T11:56:51.470Z,1006.43
2023-06-30T11:57:52.821Z,1006.48
2023-06-30T11:58:51.424Z,1006.46
2023-06-30T11:59:51.429Z,1006.49
2023-06-30T12:00:51.433Z,1006.55
2023-06-30T12:01:51.414Z,1006.47
2023-06-30T12:02:52.522Z,1006.51
2023-06-30T12:03:51.485Z,1006.48
2023-06-30T12:04:51.413Z,1006.53
2023-06-30T12:05:51.406Z,1006.50
2023-06-30T12:06:53.311Z,1006.48